Bei Facebook empfehlenBei Twitter postenGoogle plusPinterest

Das Wetter im Erzgebirge am 27.08.2017

Wetter und Klima am 27.08.2017 Holzhau im Erzgebirge (630m ü.NN)
Letzte gemessene Temperatur und Uhrzeit der Messung23:45:00 Uhr11.00 °C
Temperatur (Maximum / Höchstwert) und Uhrzeit der Messung15:00:00 Uhr23.40 °C
Temperatur (Minimum / Tiefstwert) und Uhrzeit der Messung23:45:0011.00 °C
Errechneter Absolutwert der Temperaturschwankungen zwischen Tmin und Tmax des Tages12.40 K
Errechnete Tagesmitteltemperatur17.05521 °C
Gesamt - Niederschlag des Tages (in flüssiger Form)0.00 Liter / m²
Luftdruck (Maximum / Höchstwert) und Zeitpunkt der Messung23:45:00 Uhr1016.70 hPa
Luftdruck (Minimum / Tiefstwert) und Zeitpunkt der Messung05:00:00 Uhr1012.20 hPa
Errechneter Absolutwert der Luftdruckschwankungen des Tages4.50 hPa
Höchste gemessene Windgeschwindigkeit und Uhrzeit der Messung16:00:00 Uhr29.88 km/h
Errechnete Windhäufigkeit in Relation zu den Messwerten des Tages8.33333 %
Niedrigste Windkühle (Windchill) und Zeitpunkt der Messung23:45:00 Uhr11.00 °C
Taupunkt (Maximum / Höchstwert) und Uhrzeit der Messung07:45:00 Uhr16.00 °C
Taupunkt (Minimum / Tiefstwert) und Uhrzeit der Messung23:45:008.90 °C
Anzahl der automatisch eingelesenen Messwerte 96

Detaillierte Wetter- und Klima- Messwerte für den 27.08.2017 in Holzhau im Erzgebirge (630m ü.NN)
ZeitTemperaturLuftdruckRel. LuftfeuchteWindWindrichtungWindchillTaupunktNiederschlag l/m²
23:45:0011.00 °C1016.70 hPa87.00 %8.90 °C 
23:30:0011.30 °C1016.60 hPa86.00 %9.00 °C 
23:15:0011.90 °C1016.40 hPa86.00 %9.60 °C 
23:00:0012.30 °C1016.40 hPa86.00 %10.00 °C 
22:45:0012.30 °C1016.40 hPa86.00 %10.00 °C 
22:30:0012.20 °C1016.40 hPa85.00 %9.80 °C 
22:15:0012.30 °C1016.00 hPa85.00 %9.90 °C 
22:00:0012.80 °C1015.90 hPa84.00 %10.20 °C 
21:45:0013.30 °C1015.90 hPa83.00 %10.50 °C 
21:30:0013.80 °C1015.80 hPa82.00 %10.80 °C 
21:15:0013.90 °C1015.70 hPa82.00 %10.90 °C 
21:00:0014.10 °C1015.50 hPa81.00 %10.90 °C 
20:45:0014.40 °C1015.60 hPa80.00 %11.00 °C 
20:30:0014.80 °C1015.20 hPa79.00 %11.20 °C 
20:15:0015.10 °C1015.10 hPa78.00 %11.30 °C 
20:00:0015.80 °C1014.90 hPa75.00 %11.40 °C 
19:45:0016.40 °C1014.50 hPa75.00 %12.00 °C 
19:30:0016.90 °C1014.40 hPa74.00 %12.20 °C 
19:15:0017.40 °C1014.50 hPa72.00 %12.30 °C 
19:00:0017.90 °C1014.50 hPa70.00 %12.40 °C 
18:45:0018.30 °C1014.40 hPa69.00 %12.50 °C 
18:30:0018.60 °C1014.30 hPa69.00 %12.80 °C 
18:15:0018.70 °C1014.80 hPa68.00 %12.70 °C 
18:00:0019.10 °C1014.90 hPa66.00 %12.60 °C 
17:45:0019.90 °C1014.70 hPa65.00 %13.10 °C 
17:30:0020.30 °C1014.70 hPa63.00 %13.00 °C 
17:15:0020.90 °C1014.70 hPa62.00 %13.40 °C 
17:00:0021.40 °C1014.50 hPa61.00 %7.92 km/hNW21.40 °C13.60 °C 
16:45:0021.60 °C1014.70 hPa62.00 %9.00 km/hWNW21.60 °C14.00 °C 
16:30:0021.40 °C1014.50 hPa62.00 %13.80 °C 
16:15:0021.50 °C1014.70 hPa62.00 %13.90 °C 
16:00:0021.60 °C1014.70 hPa61.00 %29.88 km/hSW22.60 °C13.80 °C 
15:45:0022.40 °C1014.80 hPa60.00 %14.30 °C 
15:30:0022.50 °C1014.80 hPa60.00 %14.40 °C 
15:15:0022.40 °C1014.80 hPa60.00 %14.30 °C 
15:00:0023.40 °C1014.80 hPa59.00 %14.90 °C 
14:45:0023.10 °C1014.70 hPa61.00 %15.20 °C 
14:30:0022.30 °C1014.70 hPa63.00 %14.90 °C 
14:15:0022.10 °C1014.60 hPa62.00 %14.50 °C 
14:00:0022.00 °C1014.50 hPa64.00 %14.90 °C 
13:45:0021.60 °C1014.70 hPa65.00 %3.96 km/hWNW21.60 °C14.70 °C 
13:30:0021.80 °C1014.60 hPa66.00 %15.20 °C 
13:15:0021.40 °C1014.70 hPa67.00 %1.44 km/hWNW21.40 °C15.00 °C 
13:00:0021.60 °C1014.60 hPa69.00 %15.70 °C 
12:45:0020.80 °C1014.60 hPa70.00 %9.00 km/hWNW20.80 °C15.10 °C 
12:30:0020.90 °C1014.40 hPa70.00 %15.20 °C 
12:15:0020.40 °C1014.30 hPa73.00 %15.40 °C 
12:00:0020.40 °C1014.10 hPa72.00 %15.20 °C 
11:45:0020.60 °C1014.00 hPa73.00 %15.60 °C 
11:30:0019.80 °C1014.00 hPa76.00 %15.40 °C 
11:15:0019.30 °C1014.00 hPa76.00 %15.00 °C 
11:00:0019.10 °C1014.00 hPa77.00 %7.92 km/hNO19.10 °C15.00 °C 
10:45:0019.20 °C1013.90 hPa78.00 %14.40 km/hWSW19.20 °C15.30 °C 
10:30:0018.90 °C1014.10 hPa80.00 %15.40 °C 
10:15:0018.30 °C1014.10 hPa83.00 %15.40 °C 
10:00:0017.30 °C1014.00 hPa86.00 %14.90 °C 
09:45:0017.20 °C1013.80 hPa86.00 %14.80 °C 
09:30:0017.50 °C1013.90 hPa85.00 %15.00 °C 
09:15:0017.60 °C1013.60 hPa86.00 %15.20 °C 
09:00:0017.40 °C1013.50 hPa89.00 %15.60 °C 
08:45:0016.90 °C1013.30 hPa89.00 %15.10 °C 
08:30:0016.80 °C1013.20 hPa91.00 %15.30 °C 
08:15:0016.90 °C1013.20 hPa93.00 %15.80 °C 
08:00:0016.90 °C1013.20 hPa94.00 %15.90 °C 
07:45:0016.80 °C1013.00 hPa95.00 %16.00 °C 
07:30:0016.60 °C1013.10 hPa95.00 %15.80 °C 
07:15:0016.60 °C1012.80 hPa95.00 %15.80 °C 
07:00:0016.60 °C1012.60 hPa95.00 %15.80 °C 
06:45:0016.50 °C1012.60 hPa95.00 %15.70 °C 
06:30:0016.40 °C1012.60 hPa95.00 %15.60 °C 
06:15:0016.30 °C1012.60 hPa96.00 %15.70 °C 
06:00:0016.00 °C1012.40 hPa95.00 %15.20 °C 
05:45:0015.60 °C1012.30 hPa95.00 %14.80 °C 
05:30:0014.90 °C1012.40 hPa95.00 %14.10 °C 
05:15:0014.40 °C1012.40 hPa95.00 %13.60 °C 
05:00:0014.10 °C1012.20 hPa95.00 %13.30 °C 
04:45:0013.90 °C1012.30 hPa95.00 %13.10 °C 
04:30:0013.60 °C1012.30 hPa95.00 %12.80 °C 
04:15:0013.60 °C1012.30 hPa94.00 %12.70 °C 
04:00:0013.50 °C1012.20 hPa94.00 %12.60 °C 
03:45:0013.30 °C1012.30 hPa94.00 %12.40 °C 
03:30:0013.20 °C1012.20 hPa94.00 %12.30 °C 
03:15:0013.60 °C1012.20 hPa94.00 %12.70 °C 
03:00:0013.80 °C1012.20 hPa94.00 %12.90 °C 
02:45:0013.90 °C1012.30 hPa94.00 %13.00 °C 
02:30:0014.10 °C1012.40 hPa94.00 %13.10 °C 
02:15:0014.20 °C1012.50 hPa94.00 %13.20 °C 
02:00:0014.20 °C1012.50 hPa94.00 %13.20 °C 
01:45:0014.40 °C1012.60 hPa94.00 %13.40 °C 
01:30:0014.50 °C1012.60 hPa93.00 %13.40 °C 
01:15:0014.80 °C1012.60 hPa93.00 %13.70 °C 
01:00:0015.10 °C1012.60 hPa93.00 %14.00 °C 
00:45:0015.30 °C1012.80 hPa94.00 %14.30 °C 
00:30:0015.30 °C1012.90 hPa94.00 %14.30 °C 
00:15:0015.10 °C1012.70 hPa93.00 %14.00 °C 
00:00:0015.10 °C1012.70 hPa93.00 %14.00 °C 

Permanenter Link zu dieser Seite: Wetter im Erzgebirge am 27.08.2017
Performance-Info: Die Erstellung der Seite / Statistik(en) / Tabelle(n) erforderte 5 Datenbankserver-Abfrage(n) und dauerte 102 Millisekunden. (Dieser Messwert ist von der Gesamt-Auslastung des Servers abhängig.)
Erzgebirge - Wetter | Erzgebirge - Wetter (Mobilgeräte) | Komplette Klimadatenbank